Spokane, Washington
Current Conditions -  °F | °C
As of 4:53 PM on Wednesday 22 Oct 2014 (Local Time) from KSFF Reporting Station
Overcast Overcast  
Wind Chill: 56°   Ceiling: 6000
Heat Index: 56°   Visibility: 10mi
Dew Point: 48°   Wind: 0mph
Humidity: 75%   Direction: NA
Pressure: 29.82"   Gusts: NA
Location:  47.66°N, 117.41°W
Report Text: KSFF 222353Z 00000KT 10SM FEW050 OVC060 13/09 A2982 RMK AO2 RAB07E45 SLP096 P0000 60000 T01330089 10178 20133 58012
Loading
Personal Weather Stations






























Interactive Weather Map New forecast layout! Learn more

10-Day Weather Forecast

Advertisements
Track Severe Weather on mobile